Alamo, Nevada Weather observations

Data are for observation ending at time listed.
 Day   Time    Ave.   Ave.  Ave.  Vector   Max.   Stn.    Total    Solar   Ave.  
  of    of     Air    Rel.  Wind   Wind    Wind   Baro.  Precip.   Rad.    Soil  
Year   Day     Temp.  Hum.  Speed  Dir.    Gust   Pres.                    Temp. 
2017   (PST)    F      %     mph   deg.    mph     mb.     in.     W/m2     F   
------------------------------------------------------------------------------
  35   21:10   38.3    85    0.3   264      1.2   898.7    0.00       0    44.6
  35   21:20   38.2    86    0.0     0      0.0   898.8    0.00       0    44.5
  35   21:30   38.3    86    0.3    25      1.0   898.9    0.00       0    44.3
  35   21:40   38.0    87    0.6     9      1.2   899.0    0.00       0    44.1
  35   21:50   37.6    86    0.2   287      1.0   899.0    0.00       0    43.9
  35   22:00   37.0    87    0.1   282      0.8   899.1    0.00       0    43.7
  35   22:10   36.7    87    0.0   354      0.5   899.2    0.00       0    43.6
  35   22:20   36.6    88    0.4     7      1.2   899.3    0.00       0    43.4
  35   22:30   36.5    88    0.1   292      1.1   899.4    0.00       0    43.3
  35   22:40   36.0    88    0.4   291      1.3   899.4    0.00       0    43.1
  35   22:50   36.0    88    0.1    16      0.6   899.5    0.00       0    42.9
  35   23:00   36.1    89    0.6    18      1.4   899.5    0.00       0    42.8
  35   23:10   36.1    90    0.4    12      1.0   899.5    0.00       0    42.7
  35   23:20   35.9    90    0.4   309      1.3   899.5    0.00       0    42.6
  35   23:30   35.8    90    0.4   306      1.0   899.5    0.00       0    42.5
  35   23:40   35.8    90    0.1    44      0.8   899.6    0.00       0    42.4
  35   23:50   35.6    90    0.1    34      0.6   899.5    0.00       0    42.3
  36    0:00   35.5    90    0.0     0      0.0   899.5    0.00       0    42.2
  36    0:10   35.6    90    0.0     0      0.0   899.5    0.00       0    42.1
  36    0:20   35.8    90    0.1   352      1.0   899.3    0.00       0    42.0
  36    0:30   35.9    90    0.5   284      1.8   899.2    0.00       0    42.0
  36    0:40   35.7    90    0.1   273      1.3   899.3    0.00       0    41.9
  36    0:50   35.6    90    0.0    13      0.9   899.3    0.00       0    41.8
  36    1:00   35.5    90    0.2    21      0.9   899.4    0.00       0    41.8
  36    1:10   35.3    91    0.8    17      1.2   899.4    0.00       0    41.7
  36    1:20   35.2    91    0.5   340      1.8   899.4    0.00       0    41.6
  36    1:30   34.9    91    0.6   328      1.7   899.4    0.00       0    41.5
  36    1:40   34.5    91    0.5   295      1.8   899.5    0.00       0    41.4
  36    1:50   34.3    92    0.0    42      0.7   899.4    0.00       0    41.3
  36    2:00   33.9    92    0.0    33      0.6   899.4    0.00       0    41.2
  36    2:10   33.6    92    0.0    34      0.5   899.4    0.00       0    41.1
  36    2:20   33.5    92    0.5     8      1.5   899.5    0.00       0    40.9
  36    2:30   33.2    92    0.4   357      1.3   899.5    0.00       0    40.8
  36    2:40   32.6    92    1.2   327      1.8   899.4    0.00       0    40.7
  36    2:50   32.2    93    0.3   294      1.1   899.3    0.00       0    40.5
  36    3:00   31.8    93    0.6    53      1.3   899.3    0.00       0    40.4
  36    3:10   31.8    93    0.5    43      1.3   899.1    0.00       0    40.3
  36    3:20   31.4    93    0.6   355      1.2   899.0    0.00       0    40.1
  36    3:30   31.0    94    0.0     0      0.0   898.9    0.00       0    40.0
  36    3:40   30.9    94    0.0     0      0.0   898.8    0.00       0    39.9
  36    3:50   30.9    94    0.0   315      0.5   898.7    0.00       0    39.7
  36    4:00   30.8    94    0.0     0      0.0   898.7    0.00       0    39.6
  36    4:10   30.6    94    0.0     0      0.0   898.7    0.00       0    39.5
  36    4:20   30.4    94    0.0     0      0.0   898.6    0.00       0    39.4
  36    4:30   30.2    94    0.0     0      0.0   898.6    0.00       0    39.3
  36    4:40   30.1    94    0.3    28      1.2   898.6    0.00       0    39.2
  36    4:50   29.9    94    0.5    18      1.2   898.6    0.00       0    39.1
  36    5:00   29.6    94    0.0     0      0.0   898.6    0.00       0    39.0
  36    5:10   29.4    94    0.1   344      0.7   898.7    0.00       0    38.8
  36    5:20   29.4    94    0.7    29      1.6   898.7    0.00       0    38.7
  36    5:30   29.1    94    0.2   306      1.1   898.8    0.00       0    38.6
  36    5:40   29.0    94    0.0     0      0.0   898.9    0.00       0    38.5
  36    5:50   28.8    94    0.0     0      0.0   898.8    0.00       0    38.4
  36    6:00   28.9    95    0.0     0      0.0   898.8    0.00       0    38.3
  36    6:10   28.8    94    0.1   310      0.9   898.8    0.00       0    38.2
  36    6:20   28.8    94    0.7    51      1.8   899.1    0.00       0    38.0
  36    6:30   28.9    95    1.3    47      2.2   899.1    0.00       0    37.9
  36    6:40   28.8    95    0.4   342      1.5   899.2    0.00       0    37.8
  36    6:50   28.4    95    0.3   289      1.3   899.3    0.00       6    37.8
  36    7:00   28.6    95    0.4   289      1.5   899.5    0.00      14    37.7
  36    7:10   29.2    95    0.1    71      0.8   899.4    0.00      29    37.6
  36    7:20   29.9    95    0.3    52      0.9   899.4    0.00      41    37.6
  36    7:30   31.0    94    0.0     0      0.0   899.6    0.00      36    37.6
  36    7:40   31.8    94    0.2    31      1.3   899.7    0.00      52    37.7
  36    7:50   32.7    94    1.1    27      1.6   899.7    0.00      54    37.8
  36    8:00   33.5    94    1.0   305      2.0   899.6    0.00      60    37.9
  36    8:10   34.0    93    0.7   312      1.7   899.6    0.00      67    38.0
  36    8:20   34.1    93    1.2    20      1.8   899.6    0.00      78    38.2
  36    8:30   34.5    93    1.1    18      2.0   899.6    0.00      82    38.3
  36    8:40   35.1    92    1.2     1      2.0   899.6    0.00      88    38.5
  36    8:50   36.0    92    1.0    14      2.1   899.5    0.00      97    38.7
  36    9:00   37.1    91    1.0   332      2.3   899.6    0.00     109    38.9
  36    9:10   38.6    89    1.6     1      4.0   899.6    0.00     124    39.1
  36    9:20   39.4    83    2.9     8      4.7   899.7    0.00     132    39.4
  36    9:30   40.3    80    3.1    13      6.1   899.8    0.00     145    39.6
  36    9:40   41.1    79    3.2    12      5.1   899.7    0.00     144    39.9
  36    9:50   41.6    78    3.0   340      5.7   899.7    0.00     142    40.1
  36   10:00   43.2    77    2.1   316      4.2   899.7    0.00     151    40.4
  36   10:10   44.7    74    1.8   304      4.2   899.7    0.00     156    40.7
  36   10:20   45.8    71    2.2   320      4.4   899.6    0.00     165    41.0
  36   10:30   47.8    67    1.6   320      4.3   899.4    0.00     148    41.4
  36   10:40   49.2    64    2.0   266      3.9   899.2    0.00     142    41.7
  36   10:50   50.3    61    1.4   287      3.7   899.2    0.00     120    42.1
  36   11:00   50.9    58    1.1   341      3.2   899.0    0.00      96    42.6
  36   11:10   51.9    56    1.4   242      3.1   898.8    0.00     105    43.4
  36   11:20   53.8    53    1.1   293      2.2   898.6    0.00     121    44.3
  36   11:30   53.4    53    1.1   320      2.7   898.3    0.00     119    45.2
  36   11:40   54.0    51    2.3   206      4.8   898.1    0.00      93    45.9
  36   11:50   54.9    51    2.3   206      6.4   897.8    0.00     161    46.4
  36   12:00   55.7    50    3.3   201      7.5   897.5    0.00     241    46.8
  36   12:10   56.9    47    1.2   169      5.6   897.2    0.00     220    47.2
  36   12:20   58.5    45    2.2   188      7.1   896.9    0.00     418    47.6
  36   12:30   57.7    46    3.5   192      7.5   896.6    0.00     469    48.3
  36   12:40   57.3    46    1.4   175      6.1   896.4    0.00     323    49.0
  36   12:50   57.0    45    3.2   182      7.8   896.1    0.00     304    49.6
  36   13:00   56.6    46    3.1   186      7.6   895.8    0.00     256    50.0
  36   13:10   56.8    45    3.2   183      8.3   895.5    0.00     237    50.3
  36   13:20   56.4    44    2.4   182      6.4   895.3    0.00     184    50.4
  36   13:30   55.9    46    3.3   184      8.5   895.0    0.00     167    50.5
  36   13:40   56.2    45    2.1   185     10.0   894.8    0.00     172    50.4
  36   13:50   56.2    45    3.2   184      7.6   894.6    0.00     178    50.3
  36   14:00   56.2    45    3.1   182      8.0   894.4    0.00     224    50.3
  36   14:10   56.5    45    3.6   184      9.1   894.4    0.00     195    50.3
  36   14:20   56.2    45    3.9   183      8.3   894.2    0.00     188    50.3
  36   14:30   56.1    46    3.4   186      8.5   894.2    0.00     158    50.3
  36   14:40   56.1    46    2.2   177      7.0   894.1    0.00     166    50.3
  36   14:50   56.1    46    3.0   181      7.5   894.1    0.00     167    50.3
  36   15:00   56.7    46    3.0   184      7.6   894.1    0.00     209    50.3
  36   15:10   56.1    46    3.7   181      8.3   894.1    0.00     159    50.4
  36   15:20   56.2    46    2.8   183      7.2   894.1    0.00     161    50.4
  36   15:30   56.0    47    2.7   178      6.6   894.1    0.00     111    50.4
  36   15:40   55.3    47    3.5   184      7.5   894.0    0.00     100    50.4
  36   15:50   55.1    46    3.0   183      7.0   894.1    0.00      85    50.3
  36   16:00   54.7    47    3.2   183      8.0   894.1    0.00      63    50.2
  36   16:10   54.3    47    2.7   181      6.8   894.1    0.00      54    50.1
  36   16:20   54.1    47    2.8   181      7.5   894.1    0.00      41    49.9
  36   16:30   53.8    48    2.3   184      6.4   894.2    0.00      40    49.8
  36   16:40   53.6    49    2.3   185      5.3   894.2    0.00      28    49.6
  36   16:50   53.3    50    1.4   191      4.3   894.2    0.00      14    49.5
  36   17:00   53.1    50    1.1   180      5.8   894.1    0.00      13    49.3
  36   17:10   53.0    51    1.3   187      5.5   894.1    0.00       6    49.1
  36   17:20   52.6    52    2.4   192      4.9   894.2    0.00       0    48.9
  36   17:30   51.5    55    2.0   191      4.4   894.2    0.00       0    48.7
  36   17:40   51.3    55    0.4   197      2.9   894.0    0.00       0    48.6
  36   17:50   51.1    55    0.6   201      3.1   894.0    0.00       0    48.4
  36   18:00   51.0    55    1.8   197      3.8   894.0    0.00       0    48.2
  36   18:10   50.0    58    1.9   189      3.7   894.0    0.00       0    48.0
  36   18:20   50.2    57    0.7   184      2.7   893.8    0.00       0    47.9
  36   18:30   50.8    55    0.4   177      1.8   893.7    0.00       0    47.7
  36   18:40   50.9    54    1.1   192      4.1   893.7    0.00       0    47.6
  36   18:50   50.0    58    1.6   199      3.4   893.7    0.00       0    47.5
  36   19:00   48.5    62    1.7   201      2.8   893.8    0.00       0    47.4
  36   19:10   48.0    62    1.8   202      3.1   893.8    0.00       0    47.2
  36   19:20   47.5    63    1.3   196      2.1   893.8    0.00       0    47.0
  36   19:30   46.8    65    1.5   196      3.4   893.7    0.00       0    46.9
  36   19:40   46.7    64    0.6   204      2.0   893.7    0.00       0    46.7
  36   19:50   46.8    64    1.2   234      2.2   893.7    0.00       0    46.5
  36   20:00   47.1    64    1.2   200      2.3   893.8    0.00       0    46.4
  36   20:10   46.2    66    0.8   186      2.0   893.8    0.00       0    46.3
  36   20:20   45.8    67    0.8   189      2.6   893.6    0.00       0    46.1
  36   20:30   45.8    67    0.6   199      2.3   893.5    0.00       0    46.0
  36   20:40   45.8    67    0.3   247      1.1   893.5    0.00       0    45.9
  36   20:50   45.2    68    1.2   198      2.0   893.2    0.00       0    45.7
  36   21:00   43.4    72    0.9   186      1.8   893.0    0.00       0    45.6

Return to Alamo, Nevada graphs page.


Western Regional Climate Center,wrcc@dri.edu